createdAt,value
2019-03-29T00:00:43.729Z,24.87
2019-03-29T00:03:12.157Z,22.80
2019-03-29T00:05:40.620Z,19.07
2019-03-29T00:08:09.311Z,17.23
2019-03-29T00:10:37.973Z,27.93
2019-03-29T00:13:06.673Z,23.40
2019-03-29T00:15:35.248Z,19.90
2019-03-29T00:18:03.691Z,21.13
2019-03-29T00:20:32.144Z,20.77
2019-03-29T00:23:00.585Z,20.47
2019-03-29T00:25:29.021Z,21.77
2019-03-29T00:27:57.583Z,19.93
2019-03-29T00:30:26.210Z,19.13
2019-03-29T00:32:55.868Z,23.27
2019-03-29T00:35:24.562Z,17.30
2019-03-29T00:37:54.931Z,36.37
2019-03-29T00:40:23.326Z,17.90
2019-03-29T00:42:51.800Z,16.43
2019-03-29T00:45:20.245Z,30.97
2019-03-29T00:47:48.689Z,29.70
2019-03-29T00:50:17.117Z,19.67
2019-03-29T00:52:45.565Z,17.23
2019-03-29T00:55:14.062Z,24.50
2019-03-29T00:57:42.497Z,21.73
2019-03-29T01:00:11.257Z,34.43
2019-03-29T01:02:39.698Z,32.97
2019-03-29T01:05:08.148Z,15.77
2019-03-29T01:07:36.593Z,21.47
2019-03-29T01:10:07.072Z,30.03
2019-03-29T01:12:35.517Z,19.13
2019-03-29T01:15:09.458Z,26.47
2019-03-29T01:17:38.025Z,28.97
2019-03-29T01:20:08.273Z,29.47
2019-03-29T01:22:36.706Z,23.13
2019-03-29T01:25:08.090Z,18.40
2019-03-29T01:27:36.833Z,21.97
2019-03-29T01:30:08.897Z,26.23
2019-03-29T01:32:37.351Z,24.97
2019-03-29T01:35:07.437Z,23.80
2019-03-29T01:37:37.420Z,23.03
2019-03-29T01:40:09.006Z,22.00
2019-03-29T01:42:37.936Z,27.00
2019-03-29T01:45:07.706Z,17.07
2019-03-29T01:47:36.165Z,36.47
2019-03-29T01:50:07.984Z,22.00
2019-03-29T01:52:36.703Z,22.30
2019-03-29T01:55:06.864Z,26.00
2019-03-29T01:57:35.724Z,17.43
2019-03-29T02:00:05.706Z,20.83
2019-03-29T02:02:34.149Z,19.70
2019-03-29T02:05:03.080Z,28.80
2019-03-29T02:07:31.499Z,21.97
2019-03-29T02:09:59.993Z,19.90
2019-03-29T02:12:28.489Z,15.43
2019-03-29T02:14:56.952Z,18.27
2019-03-29T02:17:25.380Z,30.20
2019-03-29T02:19:53.845Z,19.30
2019-03-29T02:22:22.282Z,23.73
2019-03-29T02:24:50.744Z,19.43
2019-03-29T02:27:19.168Z,20.00
2019-03-29T02:29:47.636Z,23.80
2019-03-29T02:32:16.076Z,15.37
2019-03-29T02:34:44.517Z,28.57
2019-03-29T02:37:12.957Z,17.20
2019-03-29T02:39:41.442Z,24.53
2019-03-29T02:42:09.923Z,27.03
2019-03-29T02:44:57.704Z,24.47
2019-03-29T02:47:26.132Z,18.07
2019-03-29T02:49:54.578Z,26.43
2019-03-29T02:52:23.191Z,23.70
2019-03-29T02:54:51.643Z,16.90
2019-03-29T02:57:21.207Z,16.83
2019-03-29T02:59:49.722Z,17.33
2019-03-29T03:02:18.305Z,19.00
2019-03-29T03:04:46.744Z,23.50
2019-03-29T03:07:15.171Z,24.63
2019-03-29T03:09:43.625Z,32.77
2019-03-29T03:12:12.062Z,24.07
2019-03-29T03:14:40.575Z,23.37
2019-03-29T03:17:09.014Z,30.17
2019-03-29T03:19:37.569Z,23.73
2019-03-29T03:22:06.011Z,31.67
2019-03-29T03:24:34.473Z,22.23
2019-03-29T03:27:02.907Z,29.97
2019-03-29T03:29:31.356Z,26.13
2019-03-29T03:31:59.823Z,26.17
2019-03-29T03:34:28.451Z,22.87
2019-03-29T03:36:57.093Z,30.50
2019-03-29T03:39:32.249Z,31.70
2019-03-29T03:41:55.873Z,25.40
2019-03-29T03:44:24.329Z,25.87
2019-03-29T03:46:52.787Z,39.50
2019-03-29T03:49:22.444Z,28.83
2019-03-29T03:51:50.948Z,34.33
2019-03-29T03:54:19.400Z,38.93
2019-03-29T03:56:51.119Z,45.70
2019-03-29T03:59:19.897Z,48.67
2019-03-29T04:01:48.393Z,55.27
2019-03-29T04:04:16.888Z,51.90
2019-03-29T04:06:45.405Z,53.53
2019-03-29T04:09:13.888Z,44.33
2019-03-29T04:11:42.394Z,61.87
2019-03-29T04:14:10.894Z,57.73
2019-03-29T04:16:39.377Z,50.50
2019-03-29T04:19:07.827Z,45.80
2019-03-29T04:21:36.273Z,49.97
2019-03-29T04:24:04.856Z,46.60
2019-03-29T04:26:33.303Z,52.93
2019-03-29T04:29:04.696Z,53.77
2019-03-29T04:31:31.939Z,46.10
2019-03-29T04:34:00.460Z,45.80
2019-03-29T04:36:28.908Z,46.03
2019-03-29T04:38:57.339Z,50.43
2019-03-29T04:41:25.774Z,46.53
2019-03-29T04:43:55.332Z,49.13
2019-03-29T04:46:25.097Z,50.30
2019-03-29T04:48:53.521Z,49.70
2019-03-29T04:51:22.152Z,46.83
2019-03-29T04:53:50.588Z,40.60
2019-03-29T04:56:19.121Z,45.33
2019-03-29T04:58:47.556Z,50.43
2019-03-29T05:01:17.527Z,50.90
2019-03-29T05:03:46.233Z,40.70
2019-03-29T05:06:14.737Z,41.10
2019-03-29T05:08:43.177Z,44.17
2019-03-29T05:11:11.722Z,37.77
2019-03-29T05:13:40.170Z,44.13
2019-03-29T05:16:08.621Z,40.60
2019-03-29T05:18:37.061Z,39.80
2019-03-29T05:21:05.505Z,41.90
2019-03-29T05:23:33.951Z,34.20
2019-03-29T05:26:02.511Z,37.43
2019-03-29T05:28:30.947Z,40.87
2019-03-29T05:30:59.375Z,32.00
2019-03-29T05:33:29.288Z,31.27
2019-03-29T05:35:57.724Z,37.17
2019-03-29T05:38:33.598Z,30.97
2019-03-29T05:41:02.027Z,31.00
2019-03-29T05:43:30.464Z,33.00
2019-03-29T05:45:58.953Z,31.00
2019-03-29T05:48:27.458Z,30.63
2019-03-29T05:50:55.984Z,30.57
2019-03-29T05:53:24.484Z,27.90
2019-03-29T05:55:52.918Z,27.30
2019-03-29T05:58:21.356Z,25.40
2019-03-29T06:00:49.789Z,21.20
2019-03-29T06:03:18.236Z,26.13
2019-03-29T06:05:49.576Z,31.57
2019-03-29T06:08:18.154Z,25.63
2019-03-29T06:10:49.197Z,25.87
2019-03-29T06:13:16.754Z,29.50
2019-03-29T06:15:45.193Z,27.20
2019-03-29T06:18:13.651Z,30.13
2019-03-29T06:20:44.976Z,28.43
2019-03-29T06:23:13.430Z,26.13
2019-03-29T06:25:41.872Z,29.37
2019-03-29T06:28:10.329Z,29.23
2019-03-29T06:30:38.988Z,31.77
2019-03-29T06:33:07.549Z,31.67
2019-03-29T06:35:38.961Z,24.83
2019-03-29T06:38:09.547Z,32.03
2019-03-29T06:40:37.994Z,39.87
2019-03-29T06:43:06.508Z,34.30
2019-03-29T06:45:47.195Z,40.13
2019-03-29T06:48:06.491Z,35.93
2019-03-29T06:50:34.957Z,38.80
2019-03-29T06:53:03.542Z,36.97
2019-03-29T06:55:32.175Z,42.53
2019-03-29T06:58:00.606Z,40.73
2019-03-29T07:00:29.735Z,37.70
2019-03-29T07:02:58.555Z,36.63
2019-03-29T07:05:27.522Z,40.20
2019-03-29T07:07:57.972Z,40.90
2019-03-29T07:10:26.405Z,30.50
2019-03-29T07:12:56.393Z,34.93
2019-03-29T07:15:25.411Z,37.83
2019-03-29T07:17:54.276Z,40.93
2019-03-29T07:20:22.718Z,39.10
2019-03-29T07:22:51.219Z,38.37
2019-03-29T07:25:19.669Z,40.13
2019-03-29T07:27:52.295Z,35.03
2019-03-29T07:30:18.718Z,38.00
2019-03-29T07:32:47.363Z,44.97
2019-03-29T07:35:15.875Z,40.57
2019-03-29T07:37:44.316Z,45.87
2019-03-29T07:40:13.300Z,38.53
2019-03-29T07:42:41.732Z,42.00
2019-03-29T07:45:10.761Z,44.43
2019-03-29T07:47:39.233Z,43.70
2019-03-29T07:50:08.235Z,42.20
2019-03-29T07:52:36.850Z,36.73
2019-03-29T07:55:07.639Z,37.50
2019-03-29T07:57:36.068Z,42.87
2019-03-29T08:00:08.013Z,43.50
2019-03-29T08:02:36.441Z,37.17
2019-03-29T08:05:06.318Z,34.00
2019-03-29T08:07:34.855Z,33.77
2019-03-29T08:10:04.659Z,34.73
2019-03-29T08:12:33.158Z,42.00
2019-03-29T08:15:04.451Z,30.83
2019-03-29T08:17:34.416Z,28.93
2019-03-29T08:20:36.622Z,35.80
2019-03-29T08:22:33.569Z,33.10
2019-03-29T08:25:02.287Z,30.03
2019-03-29T08:27:30.777Z,32.13
2019-03-29T08:29:59.213Z,32.50
2019-03-29T08:32:27.789Z,29.00
2019-03-29T08:34:56.231Z,28.77
2019-03-29T08:37:24.686Z,39.37
2019-03-29T08:39:56.459Z,33.90
2019-03-29T08:42:24.564Z,35.67
2019-03-29T08:44:53.021Z,33.00
2019-03-29T08:47:21.546Z,30.97
2019-03-29T08:49:50.033Z,31.17
2019-03-29T08:52:18.732Z,31.60
2019-03-29T08:54:47.203Z,30.80
2019-03-29T08:57:16.615Z,33.70
2019-03-29T08:59:45.082Z,33.93
2019-03-29T09:02:13.554Z,33.40
2019-03-29T09:04:42.172Z,30.30
2019-03-29T09:07:10.724Z,33.57
2019-03-29T09:09:39.360Z,34.70
2019-03-29T09:12:14.303Z,42.13
2019-03-29T09:14:37.973Z,35.37
2019-03-29T09:17:06.501Z,33.27
2019-03-29T09:19:34.940Z,33.20
2019-03-29T09:22:03.409Z,33.40
2019-03-29T09:24:31.851Z,34.80
2019-03-29T09:27:00.293Z,33.00
2019-03-29T09:29:28.725Z,35.47
2019-03-29T09:31:57.173Z,33.30
2019-03-29T09:34:28.688Z,35.30
2019-03-29T09:36:55.848Z,31.90
2019-03-29T09:39:24.337Z,30.77
2019-03-29T09:41:52.814Z,31.40
2019-03-29T09:44:21.398Z,36.33
2019-03-29T09:46:49.841Z,33.60
2019-03-29T09:49:18.269Z,33.17
2019-03-29T09:51:46.718Z,34.43
2019-03-29T09:54:15.157Z,34.20
2019-03-29T09:56:43.607Z,38.63
2019-03-29T09:59:12.039Z,32.83
2019-03-29T10:01:40.529Z,37.57
2019-03-29T10:04:09.008Z,33.20
2019-03-29T10:06:37.445Z,38.13
2019-03-29T10:09:07.962Z,32.60
2019-03-29T10:11:36.415Z,35.47
2019-03-29T10:14:04.860Z,46.00
2019-03-29T10:16:33.323Z,38.83
2019-03-29T10:19:01.824Z,41.13
2019-03-29T10:21:30.261Z,38.63
2019-03-29T10:23:59.269Z,39.50
2019-03-29T10:26:27.732Z,41.77
2019-03-29T10:28:56.156Z,37.43
2019-03-29T10:31:31.958Z,42.90
2019-03-29T10:33:54.753Z,47.80
2019-03-29T10:36:23.366Z,43.13
2019-03-29T10:38:51.800Z,38.70
2019-03-29T10:41:22.620Z,35.67
2019-03-29T10:43:50.569Z,45.13
2019-03-29T10:46:19.019Z,43.07
2019-03-29T10:48:47.549Z,40.77
2019-03-29T10:51:16.078Z,41.30
2019-03-29T10:53:49.167Z,43.77
2019-03-29T10:56:17.627Z,42.17
2019-03-29T10:58:46.066Z,46.23
2019-03-29T11:01:14.584Z,46.33
2019-03-29T11:03:43.091Z,47.00
2019-03-29T11:06:11.529Z,41.10
2019-03-29T11:08:43.363Z,46.43
2019-03-29T11:11:10.147Z,44.67
2019-03-29T11:13:40.957Z,46.03
2019-03-29T11:16:08.801Z,47.70
2019-03-29T11:18:37.334Z,43.10
2019-03-29T11:21:06.293Z,47.40
2019-03-29T11:23:34.813Z,45.53
2019-03-29T11:26:03.253Z,42.10
2019-03-29T11:28:31.704Z,48.93
2019-03-29T11:31:03.030Z,43.97
2019-03-29T11:33:31.478Z,53.43
2019-03-29T11:35:59.917Z,43.40
2019-03-29T11:38:28.941Z,45.40
2019-03-29T11:40:57.379Z,45.80
2019-03-29T11:43:27.329Z,46.60
2019-03-29T11:45:56.064Z,43.73
2019-03-29T11:48:24.502Z,48.17
2019-03-29T11:50:52.936Z,55.60
2019-03-29T11:53:21.503Z,48.07
2019-03-29T11:55:49.941Z,52.07
2019-03-29T11:58:18.386Z,48.10
2019-03-29T12:00:46.825Z,49.70
2019-03-29T12:03:16.078Z,54.07
2019-03-29T12:05:44.528Z,51.63
2019-03-29T12:08:12.962Z,51.10
2019-03-29T12:10:41.873Z,48.50
2019-03-29T12:13:11.114Z,47.83
2019-03-29T12:15:40.098Z,45.67
2019-03-29T12:18:09.571Z,51.37
2019-03-29T12:20:38.090Z,51.10
2019-03-29T12:23:06.574Z,52.07
2019-03-29T12:25:35.183Z,54.37
2019-03-29T12:28:03.889Z,54.90
2019-03-29T12:30:32.873Z,53.33
2019-03-29T12:33:01.323Z,51.73
2019-03-29T12:35:29.873Z,50.60
2019-03-29T12:37:58.309Z,46.03
2019-03-29T12:40:26.793Z,49.60
2019-03-29T12:42:55.266Z,48.17
2019-03-29T12:45:23.751Z,53.90
2019-03-29T12:47:52.181Z,49.47
2019-03-29T12:50:20.623Z,51.47
2019-03-29T12:52:49.080Z,51.47
2019-03-29T12:55:17.958Z,54.03
2019-03-29T12:57:46.390Z,63.90
2019-03-29T13:00:15.586Z,55.93
2019-03-29T13:02:44.038Z,53.63
2019-03-29T13:05:12.925Z,60.77
2019-03-29T13:07:41.354Z,53.77
2019-03-29T13:10:11.038Z,48.00
2019-03-29T13:12:40.804Z,55.00
2019-03-29T13:15:10.082Z,49.33
2019-03-29T13:17:38.595Z,52.40
2019-03-29T13:20:08.102Z,55.87
2019-03-29T13:22:36.813Z,60.13
2019-03-29T13:25:07.512Z,54.00
2019-03-29T13:27:36.305Z,57.00
2019-03-29T13:30:07.457Z,53.63
2019-03-29T13:32:35.909Z,53.90
2019-03-29T13:35:06.692Z,61.57
2019-03-29T13:37:35.196Z,57.00
2019-03-29T13:40:05.652Z,61.53
2019-03-29T13:42:34.152Z,59.00
2019-03-29T13:45:02.585Z,54.30
2019-03-29T13:47:31.101Z,50.53
2019-03-29T13:49:59.541Z,50.67
2019-03-29T13:52:31.106Z,50.20
2019-03-29T13:54:58.130Z,52.53
2019-03-29T13:57:27.689Z,49.70
2019-03-29T13:59:56.146Z,59.53
2019-03-29T14:02:24.581Z,54.20
2019-03-29T14:04:54.240Z,54.33
2019-03-29T14:07:22.690Z,52.97
2019-03-29T14:09:51.117Z,48.60
2019-03-29T14:12:19.567Z,57.93
2019-03-29T14:14:49.118Z,51.80
2019-03-29T14:17:17.560Z,55.90
2019-03-29T14:19:46.005Z,52.93
2019-03-29T14:22:14.470Z,63.57
2019-03-29T14:24:42.918Z,55.23
2019-03-29T14:27:11.377Z,62.37
2019-03-29T14:29:39.829Z,53.57
2019-03-29T14:32:08.342Z,51.10
2019-03-29T14:34:36.831Z,51.33
2019-03-29T14:37:05.276Z,55.30
2019-03-29T14:39:34.002Z,54.37
2019-03-29T14:42:02.450Z,59.13
2019-03-29T14:44:31.142Z,48.53
2019-03-29T14:46:59.601Z,51.30
2019-03-29T14:49:29.171Z,49.70
2019-03-29T14:51:57.602Z,54.60
2019-03-29T14:54:26.057Z,43.57
2019-03-29T14:56:54.501Z,49.93
2019-03-29T14:59:23.189Z,45.37
2019-03-29T15:01:51.627Z,42.97
2019-03-29T15:04:20.251Z,47.63
2019-03-29T15:06:48.753Z,49.07
2019-03-29T15:09:17.228Z,47.93
2019-03-29T15:11:45.717Z,47.40
2019-03-29T15:14:14.165Z,49.47
2019-03-29T15:16:42.599Z,49.60
2019-03-29T15:19:11.091Z,46.63
2019-03-29T15:21:39.517Z,50.27
2019-03-29T15:24:07.961Z,56.90
2019-03-29T15:26:36.402Z,52.60
2019-03-29T15:29:05.015Z,54.03
2019-03-29T15:31:33.446Z,51.27
2019-03-29T15:34:01.905Z,46.37
2019-03-29T15:36:30.352Z,48.93
2019-03-29T15:38:58.806Z,49.63
2019-03-29T15:41:27.449Z,42.70
2019-03-29T15:43:55.901Z,49.97
2019-03-29T15:46:24.327Z,45.47
2019-03-29T15:48:52.779Z,50.23
2019-03-29T15:51:22.443Z,46.87
2019-03-29T15:53:50.929Z,48.70
2019-03-29T15:56:19.368Z,47.90
2019-03-29T15:58:47.813Z,46.87
2019-03-29T16:01:16.266Z,43.93
2019-03-29T16:03:44.715Z,65.80
2019-03-29T16:06:13.153Z,46.93
2019-03-29T16:08:41.757Z,54.53
2019-03-29T16:11:17.084Z,47.13
2019-03-29T16:13:40.357Z,50.57
2019-03-29T16:16:08.791Z,51.70
2019-03-29T16:18:37.234Z,43.80
2019-03-29T16:21:05.697Z,53.80
2019-03-29T16:23:34.149Z,47.80
2019-03-29T16:26:02.589Z,45.20
2019-03-29T16:28:31.025Z,47.93
2019-03-29T16:30:59.574Z,55.73
2019-03-29T16:33:28.012Z,46.77
2019-03-29T16:35:56.478Z,47.70
2019-03-29T16:38:25.157Z,50.17
2019-03-29T16:40:53.633Z,49.30
2019-03-29T16:43:22.127Z,52.20
2019-03-29T16:45:50.568Z,45.80
2019-03-29T16:48:18.999Z,51.37
2019-03-29T16:50:47.584Z,48.67
2019-03-29T16:53:16.034Z,48.87
2019-03-29T16:55:44.494Z,52.30
2019-03-29T16:58:12.985Z,50.63
2019-03-29T17:00:41.436Z,52.60
2019-03-29T17:03:09.919Z,47.67
2019-03-29T17:05:38.401Z,46.43
2019-03-29T17:08:06.866Z,47.13
2019-03-29T17:10:35.323Z,49.90
2019-03-29T17:13:03.890Z,50.43
2019-03-29T17:15:32.976Z,43.13
2019-03-29T17:18:01.414Z,50.57
2019-03-29T17:20:29.858Z,49.97
2019-03-29T17:22:58.453Z,46.27
2019-03-29T17:25:26.930Z,50.03
2019-03-29T17:27:56.300Z,39.50
2019-03-29T17:30:40.528Z,58.13
2019-03-29T17:33:09.033Z,48.97
2019-03-29T17:35:37.487Z,49.57
2019-03-29T17:38:06.213Z,46.00
2019-03-29T17:40:34.665Z,50.67
2019-03-29T17:43:03.271Z,49.70
2019-03-29T17:45:31.718Z,51.07
2019-03-29T17:48:00.154Z,46.43
2019-03-29T17:50:28.774Z,52.60
2019-03-29T17:52:57.284Z,49.13
2019-03-29T17:55:25.729Z,52.03
2019-03-29T17:57:54.165Z,48.23
2019-03-29T18:00:27.340Z,55.93
2019-03-29T18:02:55.773Z,46.20
2019-03-29T18:05:24.215Z,49.90
2019-03-29T18:07:52.673Z,46.63
2019-03-29T18:10:21.160Z,44.50
2019-03-29T18:12:49.686Z,49.43
2019-03-29T18:15:18.846Z,49.97
2019-03-29T18:17:47.317Z,64.40
2019-03-29T18:20:16.179Z,59.47
2019-03-29T18:22:45.192Z,65.33
2019-03-29T18:25:13.988Z,57.90
2019-03-29T18:27:42.715Z,63.00
2019-03-29T18:30:12.596Z,49.47
2019-03-29T18:32:41.047Z,61.63
2019-03-29T18:35:10.552Z,67.67
2019-03-29T18:37:43.465Z,54.50
2019-03-29T18:40:26.301Z,59.20
2019-03-29T18:42:55.909Z,65.93
2019-03-29T18:45:25.921Z,57.97
2019-03-29T18:47:54.369Z,77.53
2019-03-29T18:50:24.748Z,55.70
2019-03-29T18:52:53.218Z,60.50
2019-03-29T18:55:21.719Z,86.17
2019-03-29T18:57:50.365Z,61.83
2019-03-29T19:00:30.155Z,64.20
2019-03-29T19:02:58.637Z,58.83
2019-03-29T19:05:27.634Z,57.40
2019-03-29T19:07:58.013Z,65.27
2019-03-29T19:10:26.523Z,61.87
2019-03-29T19:12:55.036Z,59.10
2019-03-29T19:15:23.538Z,61.90
2019-03-29T19:17:52.017Z,67.73
2019-03-29T19:20:27.255Z,56.80
2019-03-29T19:22:50.801Z,55.57
2019-03-29T19:25:19.542Z,57.60
2019-03-29T19:27:48.229Z,64.80
2019-03-29T19:30:17.551Z,58.43
2019-03-29T19:32:48.163Z,63.90
2019-03-29T19:35:16.993Z,65.33
2019-03-29T19:37:47.621Z,66.87
2019-03-29T19:40:16.518Z,55.37
2019-03-29T19:42:44.991Z,60.70
2019-03-29T19:45:15.203Z,58.50
2019-03-29T19:47:43.698Z,72.30
2019-03-29T19:50:14.178Z,62.27
2019-03-29T19:52:42.711Z,62.80
2019-03-29T19:55:12.075Z,67.80
2019-03-29T19:57:40.609Z,58.80
2019-03-29T20:00:14.524Z,66.83
2019-03-29T20:02:44.214Z,70.17
2019-03-29T20:05:27.484Z,59.47
2019-03-29T20:07:59.856Z,58.60
2019-03-29T20:10:28.326Z,66.50
2019-03-29T20:12:57.710Z,69.97
2019-03-29T20:15:26.310Z,69.50
2019-03-29T20:17:54.861Z,70.37
2019-03-29T20:20:25.025Z,63.40
2019-03-29T20:22:55.233Z,78.63
2019-03-29T20:25:24.299Z,70.67
2019-03-29T20:27:53.246Z,109.83
2019-03-29T20:30:21.756Z,97.80
2019-03-29T20:32:52.524Z,76.43
2019-03-29T20:35:21.247Z,78.03
2019-03-29T20:37:49.723Z,75.40
2019-03-29T20:40:19.879Z,76.77
2019-03-29T20:42:48.445Z,76.70
2019-03-29T20:45:17.258Z,79.30
2019-03-29T20:47:46.191Z,71.87
2019-03-29T20:50:15.621Z,77.43
2019-03-29T20:52:44.138Z,75.70
2019-03-29T20:55:12.797Z,76.63
2019-03-29T20:57:41.466Z,83.53
2019-03-29T21:00:14.514Z,84.60
2019-03-29T21:02:43.141Z,85.63
2019-03-29T21:05:11.922Z,77.27
2019-03-29T21:07:40.555Z,74.93
2019-03-29T21:10:09.790Z,85.40
2019-03-29T21:12:38.266Z,85.67
2019-03-29T21:15:07.831Z,89.80
2019-03-29T21:17:36.943Z,88.60
2019-03-29T21:20:07.930Z,80.20
2019-03-29T21:22:36.955Z,87.47
2019-03-29T21:25:08.577Z,90.77
2019-03-29T21:27:37.746Z,87.20
2019-03-29T21:30:11.191Z,95.70
2019-03-29T21:32:39.638Z,91.90
2019-03-29T21:35:09.231Z,88.80
2019-03-29T21:37:37.751Z,89.00
2019-03-29T21:40:07.673Z,82.03
2019-03-29T21:42:36.817Z,88.00
2019-03-29T21:45:07.632Z,92.27
2019-03-29T21:47:36.082Z,92.10
2019-03-29T21:50:07.551Z,99.97
2019-03-29T21:52:36.396Z,95.33
2019-03-29T21:55:06.669Z,95.47
2019-03-29T21:57:35.117Z,103.97
2019-03-29T22:00:06.207Z,97.17
2019-03-29T22:02:34.668Z,101.23
2019-03-29T22:05:03.296Z,100.67
2019-03-29T22:07:31.837Z,96.40
2019-03-29T22:10:00.284Z,100.03
2019-03-29T22:12:28.733Z,96.60
2019-03-29T22:14:57.172Z,98.20
2019-03-29T22:17:25.676Z,91.90
2019-03-29T22:19:54.112Z,103.63
2019-03-29T22:22:22.557Z,91.10
2019-03-29T22:25:00.012Z,105.67
2019-03-29T22:27:28.672Z,105.07
2019-03-29T22:29:57.105Z,97.23
2019-03-29T22:32:28.357Z,101.07
2019-03-29T22:34:56.794Z,99.93
2019-03-29T22:37:25.238Z,108.90
2019-03-29T22:39:53.838Z,98.03
2019-03-29T22:42:22.290Z,98.43
2019-03-29T22:44:50.730Z,101.80
2019-03-29T22:47:19.216Z,104.30
2019-03-29T22:49:47.640Z,98.00
2019-03-29T22:52:16.097Z,105.17
2019-03-29T22:54:44.542Z,108.03
2019-03-29T22:57:12.976Z,114.77
2019-03-29T22:59:41.432Z,114.97
2019-03-29T23:02:10.101Z,121.07
2019-03-29T23:04:38.567Z,97.60
2019-03-29T23:07:07.013Z,102.67
2019-03-29T23:09:35.473Z,110.60
2019-03-29T23:12:03.898Z,94.30
2019-03-29T23:14:32.446Z,102.97
2019-03-29T23:17:00.867Z,101.10
2019-03-29T23:19:29.499Z,97.33
2019-03-29T23:21:57.968Z,92.37
2019-03-29T23:24:27.973Z,99.63
2019-03-29T23:26:56.410Z,104.37
2019-03-29T23:29:24.885Z,106.90
2019-03-29T23:31:53.312Z,91.13
2019-03-29T23:34:21.757Z,99.70
2019-03-29T23:36:50.222Z,99.10
2019-03-29T23:39:18.749Z,93.77
2019-03-29T23:41:47.298Z,112.00
2019-03-29T23:44:15.741Z,99.63
2019-03-29T23:46:44.173Z,112.43
2019-03-29T23:49:20.906Z,102.50
2019-03-29T23:51:42.813Z,101.50
2019-03-29T23:54:11.228Z,109.97
2019-03-29T23:56:39.686Z,100.57
2019-03-29T23:59:08.114Z,106.93
